sensor_id;sensor_type;location;lat;lon;timestamp;pressure;altitude;pressure_sealevel;temperature;humidity
53689;BME280;39583;54.682;30.662;2023-03-20T06:22:02;99745.16;;;3.12;68.75
53689;BME280;39583;54.682;30.662;2023-03-20T06:24:29;99756.31;;;3.48;68.62
53689;BME280;39583;54.682;30.662;2023-03-20T06:26:56;99753.94;;;3.77;68.68
53689;BME280;39583;54.682;30.662;2023-03-20T06:29:23;99760.72;;;4.12;68.64
53689;BME280;39583;54.682;30.662;2023-03-20T06:31:53;99762.28;;;4.38;68.44
53689;BME280;39583;54.682;30.662;2023-03-20T06:34:26;99765.03;;;4.61;67.41
53689;BME280;39583;54.682;30.662;2023-03-20T06:36:52;99761.09;;;4.80;66.60
53689;BME280;39583;54.682;30.662;2023-03-20T06:39:21;99768.69;;;4.91;65.75
53689;BME280;39583;54.682;30.662;2023-03-20T06:41:47;99760.13;;;5.03;65.32
53689;BME280;39583;54.682;30.662;2023-03-20T10:55:20;99645.00;;;9.89;52.66
53689;BME280;39583;54.682;30.662;2023-03-20T10:57:56;99650.56;;;10.00;53.03
53689;BME280;39583;54.682;30.662;2023-03-20T11:00:25;99649.09;;;10.11;53.21
53689;BME280;39583;54.682;30.662;2023-03-20T11:02:51;99638.91;;;10.26;53.22
53689;BME280;39583;54.682;30.662;2023-03-20T11:05:33;99644.72;;;10.30;53.04
53689;BME280;39583;54.682;30.662;2023-03-20T11:08:10;99637.69;;;10.29;53.23
53689;BME280;39583;54.682;30.662;2023-03-20T11:10:39;99633.72;;;10.31;53.38
53689;BME280;39583;54.682;30.662;2023-03-20T11:13:15;99632.84;;;10.38;53.29
53689;BME280;39583;54.682;30.662;2023-03-20T11:15:41;99620.81;;;10.47;53.15
53689;BME280;39583;54.682;30.662;2023-03-20T11:18:10;99619.38;;;10.44;52.97
53689;BME280;39583;54.682;30.662;2023-03-20T11:20:46;99624.19;;;10.36;52.72
53689;BME280;39583;54.682;30.662;2023-03-20T11:23:17;99595.66;;;10.15;52.81
53689;BME280;39583;54.682;30.662;2023-03-20T11:26:03;99619.91;;;10.21;52.60
53689;BME280;39583;54.682;30.662;2023-03-20T11:28:40;99614.91;;;10.18;53.00
53689;BME280;39583;54.682;30.662;2023-03-20T11:33:37;99607.47;;;10.14;53.07
53689;BME280;39583;54.682;30.662;2023-03-20T11:36:26;99604.81;;;10.00;53.31
53689;BME280;39583;54.682;30.662;2023-03-20T11:39:30;99593.06;;;9.88;53.71
53689;BME280;39583;54.682;30.662;2023-03-20T11:41:59;99597.22;;;9.84;53.86
53689;BME280;39583;54.682;30.662;2023-03-20T11:44:27;99595.63;;;9.77;53.88
53689;BME280;39583;54.682;30.662;2023-03-20T11:47:03;99594.53;;;9.84;53.63
53689;BME280;39583;54.682;30.662;2023-03-20T11:49:44;99595.81;;;9.82;53.26
53689;BME280;39583;54.682;30.662;2023-03-20T11:52:14;99568.78;;;9.57;53.57
53689;BME280;39583;54.682;30.662;2023-03-20T11:54:47;99589.63;;;9.68;53.56
53689;BME280;39583;54.682;30.662;2023-03-20T11:57:34;99580.31;;;9.70;53.63
53689;BME280;39583;54.682;30.662;2023-03-20T12:02:41;99574.50;;;9.73;53.05
53689;BME280;39583;54.682;30.662;2023-03-20T12:05:34;99578.44;;;9.71;52.89
53689;BME280;39583;54.682;30.662;2023-03-20T12:08:23;99570.81;;;9.61;52.83
53689;BME280;39583;54.682;30.662;2023-03-20T12:10:56;99574.59;;;9.40;53.17
53689;BME280;39583;54.682;30.662;2023-03-20T12:13:32;99558.06;;;9.30;53.33
53689;BME280;39583;54.682;30.662;2023-03-20T12:16:02;99560.56;;;9.19;53.37
53689;BME280;39583;54.682;30.662;2023-03-20T12:18:40;99565.31;;;9.10;53.19
53689;BME280;39583;54.682;30.662;2023-03-20T12:21:28;99563.28;;;8.99;53.39
53689;BME280;39583;54.682;30.662;2023-03-20T12:24:03;99554.78;;;8.95;53.33
53689;BME280;39583;54.682;30.662;2023-03-20T12:26:36;99553.16;;;9.01;53.22
53689;BME280;39583;54.682;30.662;2023-03-20T12:31:53;99555.00;;;9.00;53.06
53689;BME280;39583;54.682;30.662;2023-03-20T12:34:31;99553.13;;;8.94;52.97
53689;BME280;39583;54.682;30.662;2023-03-20T12:36:59;99523.41;;;8.76;53.11
53689;BME280;39583;54.682;30.662;2023-03-20T12:39:55;99548.19;;;8.84;53.04
53689;BME280;39583;54.682;30.662;2023-03-20T12:45:15;99536.41;;;8.72;53.40
53689;BME280;39583;54.682;30.662;2023-03-20T12:52:48;99532.06;;;8.58;53.76
53689;BME280;39583;54.682;30.662;2023-03-20T13:01:24;99513.47;;;8.43;53.66
53689;BME280;39583;54.682;30.662;2023-03-20T13:17:29;99491.34;;;8.28;53.17
53689;BME280;39583;54.682;30.662;2023-03-20T13:20:21;99498.16;;;8.31;53.18
53689;BME280;39583;54.682;30.662;2023-03-20T13:37:31;99472.00;;;8.52;52.84
53689;BME280;39583;54.682;30.662;2023-03-20T13:45:42;99468.91;;;8.75;52.39
53689;BME280;39583;54.682;30.662;2023-03-20T13:48:36;99441.25;;;8.62;52.38
53689;BME280;39583;54.682;30.662;2023-03-20T13:53:59;99458.97;;;8.69;52.31
53689;BME280;39583;54.682;30.662;2023-03-20T14:01:45;99462.09;;;8.53;52.93
53689;BME280;39583;54.682;30.662;2023-03-20T14:04:17;99452.59;;;8.50;52.90
53689;BME280;39583;54.682;30.662;2023-03-20T14:06:52;99454.66;;;8.42;52.92
53689;BME280;39583;54.682;30.662;2023-03-20T14:09:34;99447.81;;;8.26;53.39
53689;BME280;39583;54.682;30.662;2023-03-20T14:12:04;99455.63;;;8.14;53.90
53689;BME280;39583;54.682;30.662;2023-03-20T14:14:44;99431.69;;;7.99;54.06
53689;BME280;39583;54.682;30.662;2023-03-20T14:17:28;99443.03;;;8.08;54.03
53689;BME280;39583;54.682;30.662;2023-03-20T14:19:55;99439.31;;;8.03;54.15
53689;BME280;39583;54.682;30.662;2023-03-20T14:22:26;99432.47;;;7.93;54.50
53689;BME280;39583;54.682;30.662;2023-03-20T14:24:56;99431.84;;;7.85;54.52
53689;BME280;39583;54.682;30.662;2023-03-20T14:27:26;99426.88;;;7.75;54.47
53689;BME280;39583;54.682;30.662;2023-03-20T14:29:53;99423.53;;;7.66;54.79
53689;BME280;39583;54.682;30.662;2023-03-20T14:34:52;99420.50;;;7.69;54.83
53689;BME280;39583;54.682;30.662;2023-03-20T14:40:11;99425.41;;;7.66;54.99
53689;BME280;39583;54.682;30.662;2023-03-20T14:42:54;99411.78;;;7.67;54.79
53689;BME280;39583;54.682;30.662;2023-03-20T14:45:35;99406.63;;;7.66;54.72
53689;BME280;39583;54.682;30.662;2023-03-20T14:50:40;99411.19;;;7.59;54.85
53689;BME280;39583;54.682;30.662;2023-03-20T14:53:17;99402.91;;;7.54;54.87
53689;BME280;39583;54.682;30.662;2023-03-20T15:01:23;99403.06;;;7.39;54.69
53689;BME280;39583;54.682;30.662;2023-03-20T15:03:55;99409.25;;;7.39;54.64
53689;BME280;39583;54.682;30.662;2023-03-20T15:06:24;99397.69;;;7.39;54.47
53689;BME280;39583;54.682;30.662;2023-03-20T15:09:00;99403.06;;;7.39;54.28
53689;BME280;39583;54.682;30.662;2023-03-20T15:11:30;99391.94;;;7.35;53.96
53689;BME280;39583;54.682;30.662;2023-03-20T15:13:57;99391.94;;;7.35;54.02
53689;BME280;39583;54.682;30.662;2023-03-20T15:16:28;99390.28;;;7.34;53.99
53689;BME280;39583;54.682;30.662;2023-03-20T15:18:54;99387.38;;;7.29;54.05
53689;BME280;39583;54.682;30.662;2023-03-20T15:21:31;99379.72;;;7.20;54.14
53689;BME280;39583;54.682;30.662;2023-03-20T15:23:58;99380.75;;;7.19;54.43
53689;BME280;39583;54.682;30.662;2023-03-20T15:26:25;99377.03;;;7.20;54.17
53689;BME280;39583;54.682;30.662;2023-03-20T15:29:04;99380.28;;;7.08;54.13
53689;BME280;39583;54.682;30.662;2023-03-20T15:31:34;99385.63;;;7.08;54.10
53689;BME280;39583;54.682;30.662;2023-03-20T15:34:03;99385.78;;;7.00;54.06
53689;BME280;39583;54.682;30.662;2023-03-20T15:36:33;99384.13;;;6.93;54.43
53689;BME280;39583;54.682;30.662;2023-03-20T15:41:36;99395.41;;;6.88;54.37
53689;BME280;39583;54.682;30.662;2023-03-20T15:46:50;99386.28;;;6.76;54.24
53689;BME280;39583;54.682;30.662;2023-03-20T15:49:17;99384.41;;;6.70;54.46
53689;BME280;39583;54.682;30.662;2023-03-20T15:51:43;99384.19;;;6.65;54.55
53689;BME280;39583;54.682;30.662;2023-03-20T15:54:13;99382.28;;;6.59;54.88
53689;BME280;39583;54.682;30.662;2023-03-20T15:56:42;99376.69;;;6.54;54.78
53689;BME280;39583;54.682;30.662;2023-03-20T15:59:14;99372.50;;;6.44;54.98
53689;BME280;39583;54.682;30.662;2023-03-20T16:01:43;99372.94;;;6.48;54.89
53689;BME280;39583;54.682;30.662;2023-03-20T16:04:13;99375.38;;;6.43;54.83
53689;BME280;39583;54.682;30.662;2023-03-20T16:06:46;99376.81;;;6.39;54.74
53689;BME280;39583;54.682;30.662;2023-03-20T16:09:15;99381.69;;;6.35;55.11
53689;BME280;39583;54.682;30.662;2023-03-20T16:11:45;99379.81;;;6.29;54.93
53689;BME280;39583;54.682;30.662;2023-03-20T16:14:23;99380.38;;;6.25;54.96
53689;BME280;39583;54.682;30.662;2023-03-20T16:16:53;99375.41;;;6.21;55.11
53689;BME280;39583;54.682;30.662;2023-03-20T16:19:20;99366.53;;;6.14;54.96
53689;BME280;39583;54.682;30.662;2023-03-20T16:21:53;99368.00;;;6.17;54.86
53689;BME280;39583;54.682;30.662;2023-03-20T16:24:34;99368.38;;;6.14;54.70
53689;BME280;39583;54.682;30.662;2023-03-20T16:27:05;99370.03;;;6.15;55.05
53689;BME280;39583;54.682;30.662;2023-03-20T16:29:33;99364.69;;;6.15;54.95
53689;BME280;39583;54.682;30.662;2023-03-20T16:32:06;99361.75;;;6.10;54.76
53689;BME280;39583;54.682;30.662;2023-03-20T16:34:48;99370.84;;;6.15;54.65
53689;BME280;39583;54.682;30.662;2023-03-20T16:37:46;99370.84;;;6.15;54.71
53689;BME280;39583;54.682;30.662;2023-03-20T16:42:50;99361.50;;;6.05;54.75
53689;BME280;39583;54.682;30.662;2023-03-20T16:45:32;99363.75;;;6.01;54.98
53689;BME280;39583;54.682;30.662;2023-03-20T16:48:21;99362.25;;;5.99;55.07
53689;BME280;39583;54.682;30.662;2023-03-20T16:51:15;99353.81;;;5.95;54.92
53689;BME280;39583;54.682;30.662;2023-03-20T16:53:43;99358.06;;;5.89;54.95
53689;BME280;39583;54.682;30.662;2023-03-20T16:56:13;99362.97;;;5.86;55.28
53689;BME280;39583;54.682;30.662;2023-03-20T16:58:43;99356.34;;;5.82;55.22
53689;BME280;39583;54.682;30.662;2023-03-20T17:01:18;99353.03;;;5.80;55.20
53689;BME280;39583;54.682;30.662;2023-03-20T17:03:48;99331.31;;;5.61;54.98
53689;BME280;39583;54.682;30.662;2023-03-20T17:11:21;99354.13;;;5.64;55.41
53689;BME280;39583;54.682;30.662;2023-03-20T17:13:51;99355.16;;;5.63;55.41
53689;BME280;39583;54.682;30.662;2023-03-20T17:16:19;99355.97;;;5.63;55.43
53689;BME280;39583;54.682;30.662;2023-03-20T17:18:57;99348.34;;;5.60;55.62
53689;BME280;39583;54.682;30.662;2023-03-20T17:21:24;99356.53;;;5.59;55.74
53689;BME280;39583;54.682;30.662;2023-03-20T17:23:50;99349.09;;;5.54;55.98
53689;BME280;39583;54.682;30.662;2023-03-20T17:26:17;99351.97;;;5.53;55.91
53689;BME280;39583;54.682;30.662;2023-03-20T17:28:43;99355.03;;;5.50;56.20
53689;BME280;39583;54.682;30.662;2023-03-20T17:31:14;99357.59;;;5.43;55.94
53689;BME280;39583;54.682;30.662;2023-03-20T17:33:41;99351.38;;;5.36;56.35
53689;BME280;39583;54.682;30.662;2023-03-20T17:36:17;99348.44;;;5.31;56.47
53689;BME280;39583;54.682;30.662;2023-03-20T17:38:43;99346.34;;;5.26;56.40
53689;BME280;39583;54.682;30.662;2023-03-20T17:41:14;99343.03;;;5.24;56.53
53689;BME280;39583;54.682;30.662;2023-03-20T17:43:40;99343.56;;;5.20;56.73
53689;BME280;39583;54.682;30.662;2023-03-20T17:46:25;99339.00;;;5.14;56.94
53689;BME280;39583;54.682;30.662;2023-03-20T17:48:56;99344.44;;;5.06;57.41
53689;BME280;39583;54.682;30.662;2023-03-20T17:51:23;99348.50;;;5.01;57.32
53689;BME280;39583;54.682;30.662;2023-03-20T17:53:49;99345.59;;;4.96;57.63
53689;BME280;39583;54.682;30.662;2023-03-20T17:56:21;99351.66;;;4.90;57.82
53689;BME280;39583;54.682;30.662;2023-03-20T17:58:47;99347.06;;;4.84;57.83
53689;BME280;39583;54.682;30.662;2023-03-20T18:01:13;99347.97;;;4.77;58.08
53689;BME280;39583;54.682;30.662;2023-03-20T18:03:39;99323.88;;;4.55;58.71
53689;BME280;39583;54.682;30.662;2023-03-20T18:06:17;99325.09;;;4.53;58.67
53689;BME280;39583;54.682;30.662;2023-03-20T18:08:45;99338.59;;;4.66;58.69
53689;BME280;39583;54.682;30.662;2023-03-20T18:11:11;99345.41;;;4.68;58.58
53689;BME280;39583;54.682;30.662;2023-03-20T18:13:37;99344.41;;;4.69;58.95
53689;BME280;39583;54.682;30.662;2023-03-20T18:16:03;99348.94;;;4.69;58.64
53689;BME280;39583;54.682;30.662;2023-03-20T18:18:29;99340.06;;;4.68;58.65
53689;BME280;39583;54.682;30.662;2023-03-20T18:20:55;99334.28;;;4.65;58.92
53689;BME280;39583;54.682;30.662;2023-03-20T18:23:22;99326.28;;;4.65;59.05
53689;BME280;39583;54.682;30.662;2023-03-20T18:25:48;99323.53;;;4.58;58.84
53689;BME280;39583;54.682;30.662;2023-03-20T18:28:16;99321.31;;;4.62;58.99
53689;BME280;39583;54.682;30.662;2023-03-20T18:30:48;99319.28;;;4.64;58.96
53689;BME280;39583;54.682;30.662;2023-03-20T18:33:15;99294.09;;;4.52;58.92
53689;BME280;39583;54.682;30.662;2023-03-20T18:35:41;99309.38;;;4.72;59.06
